sensor_id;sensor_type;location;lat;lon;timestamp;P1;durP1;ratioP1;P2;durP2;ratioP2
8102;SDS011;4094;49.948;11.574;2023-11-19T00:00:52;9.27;;;8.77;;
8102;SDS011;4094;49.948;11.574;2023-11-19T00:03:21;9.13;;;8.73;;
8102;SDS011;4094;49.948;11.574;2023-11-19T00:05:50;9.33;;;8.83;;
8102;SDS011;4094;49.948;11.574;2023-11-19T00:08:22;9.20;;;8.70;;
8102;SDS011;4094;49.948;11.574;2023-11-19T00:10:52;9.53;;;9.03;;
8102;SDS011;4094;49.948;11.574;2023-11-19T00:13:21;9.67;;;9.17;;
8102;SDS011;4094;49.948;11.574;2023-11-19T00:15:51;9.53;;;8.97;;
8102;SDS011;4094;49.948;11.574;2023-11-19T00:18:20;9.70;;;9.20;;
8102;SDS011;4094;49.948;11.574;2023-11-19T00:20:49;9.43;;;8.93;;
8102;SDS011;4094;49.948;11.574;2023-11-19T00:23:18;9.20;;;8.80;;
8102;SDS011;4094;49.948;11.574;2023-11-19T00:25:49;9.37;;;8.87;;
8102;SDS011;4094;49.948;11.574;2023-11-19T00:28:18;9.13;;;8.63;;
8102;SDS011;4094;49.948;11.574;2023-11-19T00:30:47;9.43;;;8.93;;
8102;SDS011;4094;49.948;11.574;2023-11-19T00:33:16;9.10;;;8.60;;
8102;SDS011;4094;49.948;11.574;2023-11-19T00:35:45;9.60;;;9.10;;
8102;SDS011;4094;49.948;11.574;2023-11-19T00:38:14;9.50;;;9.00;;
8102;SDS011;4094;49.948;11.574;2023-11-19T00:40:43;9.53;;;8.97;;
8102;SDS011;4094;49.948;11.574;2023-11-19T00:43:14;9.23;;;8.73;;
8102;SDS011;4094;49.948;11.574;2023-11-19T00:45:43;9.33;;;8.83;;
8102;SDS011;4094;49.948;11.574;2023-11-19T00:48:12;9.10;;;8.60;;
8102;SDS011;4094;49.948;11.574;2023-11-19T00:50:41;9.00;;;8.50;;
8102;SDS011;4094;49.948;11.574;2023-11-19T00:53:12;9.20;;;8.70;;
8102;SDS011;4094;49.948;11.574;2023-11-19T00:55:41;9.10;;;8.60;;
8102;SDS011;4094;49.948;11.574;2023-11-19T00:58:15;8.97;;;8.57;;
8102;SDS011;4094;49.948;11.574;2023-11-19T01:00:45;9.33;;;8.83;;
8102;SDS011;4094;49.948;11.574;2023-11-19T01:03:14;8.57;;;8.17;;
8102;SDS011;4094;49.948;11.574;2023-11-19T01:05:44;8.53;;;8.13;;
8102;SDS011;4094;49.948;11.574;2023-11-19T01:08:14;9.10;;;8.60;;
8102;SDS011;4094;49.948;11.574;2023-11-19T01:10:44;8.90;;;8.50;;
8102;SDS011;4094;49.948;11.574;2023-11-19T01:13:13;9.00;;;8.60;;
8102;SDS011;4094;49.948;11.574;2023-11-19T01:15:43;8.73;;;8.33;;
8102;SDS011;4094;49.948;11.574;2023-11-19T01:18:13;8.57;;;8.17;;
8102;SDS011;4094;49.948;11.574;2023-11-19T01:20:42;8.40;;;8.00;;
8102;SDS011;4094;49.948;11.574;2023-11-19T01:23:11;8.50;;;8.10;;
8102;SDS011;4094;49.948;11.574;2023-11-19T01:25:40;8.80;;;8.40;;
8102;SDS011;4094;49.948;11.574;2023-11-19T01:28:10;8.60;;;8.20;;
8102;SDS011;4094;49.948;11.574;2023-11-19T01:30:39;8.67;;;8.27;;
8102;SDS011;4094;49.948;11.574;2023-11-19T01:33:11;8.57;;;8.17;;
8102;SDS011;4094;49.948;11.574;2023-11-19T01:35:40;8.20;;;7.80;;
8102;SDS011;4094;49.948;11.574;2023-11-19T01:38:09;8.63;;;8.23;;
8102;SDS011;4094;49.948;11.574;2023-11-19T01:40:38;8.40;;;8.00;;
8102;SDS011;4094;49.948;11.574;2023-11-19T01:43:07;8.20;;;7.80;;
8102;SDS011;4094;49.948;11.574;2023-11-19T01:45:38;8.40;;;8.00;;
8102;SDS011;4094;49.948;11.574;2023-11-19T01:48:08;8.23;;;7.73;;
8102;SDS011;4094;49.948;11.574;2023-11-19T01:50:39;8.30;;;7.90;;
8102;SDS011;4094;49.948;11.574;2023-11-19T01:53:08;8.57;;;8.10;;
8102;SDS011;4094;49.948;11.574;2023-11-19T01:55:37;8.50;;;8.10;;
8102;SDS011;4094;49.948;11.574;2023-11-19T01:58:07;8.00;;;7.60;;
8102;SDS011;4094;49.948;11.574;2023-11-19T02:00:37;8.43;;;8.03;;
8102;SDS011;4094;49.948;11.574;2023-11-19T02:03:06;8.00;;;7.60;;
8102;SDS011;4094;49.948;11.574;2023-11-19T02:05:37;8.20;;;7.80;;
8102;SDS011;4094;49.948;11.574;2023-11-19T02:08:08;8.50;;;8.10;;
8102;SDS011;4094;49.948;11.574;2023-11-19T02:10:37;8.40;;;7.93;;
8102;SDS011;4094;49.948;11.574;2023-11-19T02:13:06;8.50;;;7.90;;
8102;SDS011;4094;49.948;11.574;2023-11-19T02:15:38;8.53;;;8.13;;
8102;SDS011;4094;49.948;11.574;2023-11-19T02:18:17;8.30;;;7.90;;
8102;SDS011;4094;49.948;11.574;2023-11-19T02:20:50;8.13;;;7.73;;
8102;SDS011;4094;49.948;11.574;2023-11-19T02:23:20;8.40;;;8.00;;
8102;SDS011;4094;49.948;11.574;2023-11-19T02:25:53;8.27;;;7.80;;
8102;SDS011;4094;49.948;11.574;2023-11-19T02:28:31;8.47;;;8.03;;
8102;SDS011;4094;49.948;11.574;2023-11-19T02:31:02;8.40;;;8.00;;
8102;SDS011;4094;49.948;11.574;2023-11-19T02:33:32;8.73;;;8.23;;
8102;SDS011;4094;49.948;11.574;2023-11-19T02:36:02;8.13;;;7.73;;
8102;SDS011;4094;49.948;11.574;2023-11-19T02:38:33;8.23;;;7.83;;
8102;SDS011;4094;49.948;11.574;2023-11-19T02:41:03;7.97;;;7.57;;
8102;SDS011;4094;49.948;11.574;2023-11-19T02:43:36;8.60;;;8.20;;
8102;SDS011;4094;49.948;11.574;2023-11-19T02:46:06;7.80;;;7.50;;
8102;SDS011;4094;49.948;11.574;2023-11-19T02:48:39;8.40;;;7.90;;
8102;SDS011;4094;49.948;11.574;2023-11-19T02:51:09;8.00;;;7.60;;
8102;SDS011;4094;49.948;11.574;2023-11-19T02:53:38;8.37;;;7.93;;
8102;SDS011;4094;49.948;11.574;2023-11-19T02:56:08;8.10;;;7.70;;
8102;SDS011;4094;49.948;11.574;2023-11-19T02:58:48;8.07;;;7.67;;
8102;SDS011;4094;49.948;11.574;2023-11-19T03:01:22;8.17;;;7.77;;
8102;SDS011;4094;49.948;11.574;2023-11-19T03:03:58;8.23;;;7.83;;
8102;SDS011;4094;49.948;11.574;2023-11-19T03:06:31;8.10;;;7.60;;
8102;SDS011;4094;49.948;11.574;2023-11-19T03:09:00;7.63;;;7.23;;
8102;SDS011;4094;49.948;11.574;2023-11-19T03:11:33;8.17;;;7.67;;
8102;SDS011;4094;49.948;11.574;2023-11-19T03:14:04;8.10;;;7.60;;
8102;SDS011;4094;49.948;11.574;2023-11-19T03:16:34;7.63;;;7.33;;
8102;SDS011;4094;49.948;11.574;2023-11-19T03:19:03;8.00;;;7.60;;
8102;SDS011;4094;49.948;11.574;2023-11-19T03:21:34;7.50;;;7.20;;
8102;SDS011;4094;49.948;11.574;2023-11-19T03:24:04;8.00;;;7.70;;
8102;SDS011;4094;49.948;11.574;2023-11-19T03:26:35;7.60;;;7.30;;
8102;SDS011;4094;49.948;11.574;2023-11-19T03:29:05;7.27;;;6.97;;
8102;SDS011;4094;49.948;11.574;2023-11-19T03:31:34;7.57;;;7.27;;
8102;SDS011;4094;49.948;11.574;2023-11-19T03:34:03;7.67;;;7.20;;
8102;SDS011;4094;49.948;11.574;2023-11-19T03:36:32;7.30;;;7.00;;
8102;SDS011;4094;49.948;11.574;2023-11-19T03:39:01;7.90;;;7.40;;
8102;SDS011;4094;49.948;11.574;2023-11-19T03:41:31;7.67;;;7.37;;
8102;SDS011;4094;49.948;11.574;2023-11-19T03:44:03;7.27;;;6.97;;
8102;SDS011;4094;49.948;11.574;2023-11-19T03:46:34;7.73;;;7.33;;
8102;SDS011;4094;49.948;11.574;2023-11-19T03:49:04;7.30;;;7.00;;
8102;SDS011;4094;49.948;11.574;2023-11-19T03:51:34;7.70;;;7.30;;
8102;SDS011;4094;49.948;11.574;2023-11-19T03:54:04;7.23;;;6.93;;
8102;SDS011;4094;49.948;11.574;2023-11-19T03:56:35;7.27;;;6.97;;
8102;SDS011;4094;49.948;11.574;2023-11-19T03:59:04;7.60;;;7.20;;
8102;SDS011;4094;49.948;11.574;2023-11-19T04:01:35;7.43;;;7.13;;
8102;SDS011;4094;49.948;11.574;2023-11-19T04:04:05;7.30;;;7.00;;
8102;SDS011;4094;49.948;11.574;2023-11-19T04:06:35;7.30;;;7.00;;
8102;SDS011;4094;49.948;11.574;2023-11-19T04:09:04;7.43;;;7.13;;
8102;SDS011;4094;49.948;11.574;2023-11-19T04:11:33;7.23;;;6.83;;
8102;SDS011;4094;49.948;11.574;2023-11-19T04:14:04;7.30;;;7.00;;
8102;SDS011;4094;49.948;11.574;2023-11-19T04:16:35;7.57;;;7.27;;
8102;SDS011;4094;49.948;11.574;2023-11-19T04:19:04;7.30;;;7.00;;
8102;SDS011;4094;49.948;11.574;2023-11-19T04:21:33;7.30;;;7.00;;
8102;SDS011;4094;49.948;11.574;2023-11-19T04:24:03;7.10;;;6.80;;
8102;SDS011;4094;49.948;11.574;2023-11-19T04:26:32;6.60;;;6.20;;
8102;SDS011;4094;49.948;11.574;2023-11-19T04:29:02;6.73;;;6.43;;
8102;SDS011;4094;49.948;11.574;2023-11-19T04:31:31;7.00;;;6.70;;
8102;SDS011;4094;49.948;11.574;2023-11-19T04:34:01;6.90;;;6.60;;
8102;SDS011;4094;49.948;11.574;2023-11-19T04:36:30;6.83;;;6.53;;
8102;SDS011;4094;49.948;11.574;2023-11-19T04:39:00;6.67;;;6.37;;
8102;SDS011;4094;49.948;11.574;2023-11-19T04:41:30;6.83;;;6.53;;
8102;SDS011;4094;49.948;11.574;2023-11-19T04:43:59;7.10;;;6.80;;
8102;SDS011;4094;49.948;11.574;2023-11-19T04:46:28;6.93;;;6.63;;
8102;SDS011;4094;49.948;11.574;2023-11-19T04:48:57;6.67;;;6.37;;
8102;SDS011;4094;49.948;11.574;2023-11-19T04:51:27;6.40;;;6.20;;
8102;SDS011;4094;49.948;11.574;2023-11-19T04:53:56;7.13;;;6.83;;
8102;SDS011;4094;49.948;11.574;2023-11-19T04:56:25;6.93;;;6.63;;
8102;SDS011;4094;49.948;11.574;2023-11-19T04:58:54;7.00;;;6.70;;
8102;SDS011;4094;49.948;11.574;2023-11-19T05:01:23;6.80;;;6.50;;
8102;SDS011;4094;49.948;11.574;2023-11-19T05:03:52;7.03;;;6.67;;
8102;SDS011;4094;49.948;11.574;2023-11-19T05:06:21;7.10;;;6.80;;
8102;SDS011;4094;49.948;11.574;2023-11-19T05:08:51;7.33;;;7.03;;
8102;SDS011;4094;49.948;11.574;2023-11-19T05:11:21;7.37;;;7.07;;
8102;SDS011;4094;49.948;11.574;2023-11-19T05:13:50;6.97;;;6.67;;
8102;SDS011;4094;49.948;11.574;2023-11-19T05:16:19;6.90;;;6.60;;
8102;SDS011;4094;49.948;11.574;2023-11-19T05:18:49;7.47;;;7.03;;
8102;SDS011;4094;49.948;11.574;2023-11-19T05:21:17;7.20;;;6.90;;
8102;SDS011;4094;49.948;11.574;2023-11-19T05:23:46;7.33;;;7.03;;
8102;SDS011;4094;49.948;11.574;2023-11-19T05:26:20;7.57;;;7.27;;
8102;SDS011;4094;49.948;11.574;2023-11-19T05:28:50;7.20;;;6.90;;
8102;SDS011;4094;49.948;11.574;2023-11-19T05:31:20;7.30;;;7.00;;
8102;SDS011;4094;49.948;11.574;2023-11-19T05:33:49;7.03;;;6.73;;
8102;SDS011;4094;49.948;11.574;2023-11-19T05:36:19;7.07;;;6.77;;
8102;SDS011;4094;49.948;11.574;2023-11-19T05:38:48;7.17;;;6.87;;
8102;SDS011;4094;49.948;11.574;2023-11-19T05:41:17;7.30;;;7.00;;
8102;SDS011;4094;49.948;11.574;2023-11-19T05:43:47;7.40;;;7.10;;
8102;SDS011;4094;49.948;11.574;2023-11-19T05:46:17;7.20;;;6.90;;
8102;SDS011;4094;49.948;11.574;2023-11-19T05:48:47;6.93;;;6.63;;
8102;SDS011;4094;49.948;11.574;2023-11-19T05:51:16;7.40;;;7.10;;
8102;SDS011;4094;49.948;11.574;2023-11-19T05:53:47;7.23;;;6.93;;
8102;SDS011;4094;49.948;11.574;2023-11-19T05:56:17;7.03;;;6.73;;
8102;SDS011;4094;49.948;11.574;2023-11-19T05:58:50;7.63;;;7.33;;
8102;SDS011;4094;49.948;11.574;2023-11-19T06:01:19;7.27;;;6.97;;
8102;SDS011;4094;49.948;11.574;2023-11-19T06:03:49;7.40;;;7.10;;
8102;SDS011;4094;49.948;11.574;2023-11-19T06:06:19;7.20;;;6.80;;
8102;SDS011;4094;49.948;11.574;2023-11-19T06:08:48;7.37;;;7.07;;
8102;SDS011;4094;49.948;11.574;2023-11-19T06:11:17;7.20;;;6.90;;
8102;SDS011;4094;49.948;11.574;2023-11-19T06:13:48;8.00;;;7.40;;
8102;SDS011;4094;49.948;11.574;2023-11-19T06:16:19;7.20;;;6.90;;
8102;SDS011;4094;49.948;11.574;2023-11-19T06:18:48;7.40;;;7.10;;
8102;SDS011;4094;49.948;11.574;2023-11-19T06:21:17;7.43;;;7.13;;
8102;SDS011;4094;49.948;11.574;2023-11-19T06:23:46;7.67;;;7.37;;
8102;SDS011;4094;49.948;11.574;2023-11-19T06:26:16;7.60;;;7.20;;
8102;SDS011;4094;49.948;11.574;2023-11-19T06:28:45;7.67;;;7.37;;
8102;SDS011;4094;49.948;11.574;2023-11-19T06:31:15;7.70;;;7.40;;
8102;SDS011;4094;49.948;11.574;2023-11-19T06:33:47;7.80;;;7.40;;
8102;SDS011;4094;49.948;11.574;2023-11-19T06:36:16;7.60;;;7.20;;
8102;SDS011;4094;49.948;11.574;2023-11-19T06:38:46;8.10;;;7.70;;
8102;SDS011;4094;49.948;11.574;2023-11-19T06:41:15;7.77;;;7.37;;
8102;SDS011;4094;49.948;11.574;2023-11-19T06:43:46;7.37;;;7.07;;
8102;SDS011;4094;49.948;11.574;2023-11-19T06:46:15;7.20;;;6.90;;
8102;SDS011;4094;49.948;11.574;2023-11-19T06:48:48;7.57;;;7.27;;
8102;SDS011;4094;49.948;11.574;2023-11-19T06:51:17;7.87;;;7.47;;
8102;SDS011;4094;49.948;11.574;2023-11-19T06:53:47;7.53;;;7.07;;
8102;SDS011;4094;49.948;11.574;2023-11-19T06:56:23;7.40;;;7.10;;
8102;SDS011;4094;49.948;11.574;2023-11-19T06:58:52;7.70;;;7.20;;
8102;SDS011;4094;49.948;11.574;2023-11-19T07:01:22;7.47;;;7.07;;
8102;SDS011;4094;49.948;11.574;2023-11-19T07:03:52;8.30;;;7.90;;
8102;SDS011;4094;49.948;11.574;2023-11-19T07:06:21;8.37;;;7.97;;
8102;SDS011;4094;49.948;11.574;2023-11-19T07:09:02;7.90;;;7.50;;
8102;SDS011;4094;49.948;11.574;2023-11-19T07:11:37;7.93;;;7.53;;
8102;SDS011;4094;49.948;11.574;2023-11-19T07:14:07;7.83;;;7.43;;
8102;SDS011;4094;49.948;11.574;2023-11-19T07:16:37;7.77;;;7.37;;
8102;SDS011;4094;49.948;11.574;2023-11-19T07:19:08;7.00;;;6.70;;
8102;SDS011;4094;49.948;11.574;2023-11-19T07:21:37;7.90;;;7.50;;
8102;SDS011;4094;49.948;11.574;2023-11-19T07:24:11;7.93;;;7.53;;
8102;SDS011;4094;49.948;11.574;2023-11-19T07:26:42;8.00;;;7.60;;
8102;SDS011;4094;49.948;11.574;2023-11-19T07:29:12;8.07;;;7.57;;
8102;SDS011;4094;49.948;11.574;2023-11-19T07:31:56;8.37;;;7.97;;
8102;SDS011;4094;49.948;11.574;2023-11-19T07:34:26;7.73;;;7.33;;
8102;SDS011;4094;49.948;11.574;2023-11-19T07:36:56;8.50;;;8.00;;
8102;SDS011;4094;49.948;11.574;2023-11-19T07:39:26;8.00;;;7.60;;
8102;SDS011;4094;49.948;11.574;2023-11-19T07:41:55;8.33;;;7.83;;
8102;SDS011;4094;49.948;11.574;2023-11-19T07:44:25;8.17;;;7.77;;
8102;SDS011;4094;49.948;11.574;2023-11-19T07:46:54;8.60;;;8.10;;
8102;SDS011;4094;49.948;11.574;2023-11-19T07:49:23;8.80;;;8.30;;
8102;SDS011;4094;49.948;11.574;2023-11-19T07:51:53;8.40;;;8.00;;
8102;SDS011;4094;49.948;11.574;2023-11-19T07:54:22;8.13;;;7.63;;
8102;SDS011;4094;49.948;11.574;2023-11-19T07:56:51;8.20;;;7.80;;
8102;SDS011;4094;49.948;11.574;2023-11-19T07:59:21;7.43;;;7.03;;
8102;SDS011;4094;49.948;11.574;2023-11-19T08:01:50;8.37;;;7.97;;
8102;SDS011;4094;49.948;11.574;2023-11-19T08:04:19;8.47;;;8.07;;
8102;SDS011;4094;49.948;11.574;2023-11-19T08:06:48;7.80;;;7.40;;
8102;SDS011;4094;49.948;11.574;2023-11-19T08:09:19;8.53;;;8.03;;
8102;SDS011;4094;49.948;11.574;2023-11-19T08:11:48;8.23;;;7.83;;
8102;SDS011;4094;49.948;11.574;2023-11-19T08:14:18;7.90;;;7.50;;
8102;SDS011;4094;49.948;11.574;2023-11-19T08:16:47;8.00;;;7.60;;
8102;SDS011;4094;49.948;11.574;2023-11-19T08:19:16;8.80;;;8.30;;
8102;SDS011;4094;49.948;11.574;2023-11-19T08:21:45;8.37;;;7.97;;
8102;SDS011;4094;49.948;11.574;2023-11-19T08:24:14;7.93;;;7.53;;
8102;SDS011;4094;49.948;11.574;2023-11-19T08:26:45;6.70;;;6.40;;
8102;SDS011;4094;49.948;11.574;2023-11-19T08:29:29;6.70;;;6.40;;
8102;SDS011;4094;49.948;11.574;2023-11-19T08:31:59;6.60;;;6.30;;
8102;SDS011;4094;49.948;11.574;2023-11-19T08:34:29;6.60;;;6.30;;
8102;SDS011;4094;49.948;11.574;2023-11-19T08:36:59;6.70;;;6.40;;
8102;SDS011;4094;49.948;11.574;2023-11-19T08:39:28;6.40;;;6.10;;
8102;SDS011;4094;49.948;11.574;2023-11-19T08:41:59;6.30;;;6.00;;
8102;SDS011;4094;49.948;11.574;2023-11-19T08:44:28;6.60;;;6.30;;
8102;SDS011;4094;49.948;11.574;2023-11-19T08:46:58;6.33;;;6.03;;
8102;SDS011;4094;49.948;11.574;2023-11-19T08:49:27;6.30;;;6.00;;
8102;SDS011;4094;49.948;11.574;2023-11-19T08:51:56;6.40;;;6.10;;
8102;SDS011;4094;49.948;11.574;2023-11-19T08:54:25;6.47;;;6.07;;
8102;SDS011;4094;49.948;11.574;2023-11-19T08:56:54;6.30;;;6.00;;
8102;SDS011;4094;49.948;11.574;2023-11-19T08:59:25;6.47;;;6.17;;
8102;SDS011;4094;49.948;11.574;2023-11-19T09:01:54;6.57;;;6.27;;
8102;SDS011;4094;49.948;11.574;2023-11-19T09:04:23;6.40;;;6.10;;
8102;SDS011;4094;49.948;11.574;2023-11-19T09:06:52;6.70;;;6.10;;
8102;SDS011;4094;49.948;11.574;2023-11-19T09:09:23;6.60;;;6.30;;
8102;SDS011;4094;49.948;11.574;2023-11-19T09:11:52;6.70;;;6.40;;
8102;SDS011;4094;49.948;11.574;2023-11-19T09:14:21;7.20;;;6.80;;
8102;SDS011;4094;49.948;11.574;2023-11-19T09:16:54;6.80;;;6.40;;
8102;SDS011;4094;49.948;11.574;2023-11-19T09:19:24;6.80;;;6.50;;
8102;SDS011;4094;49.948;11.574;2023-11-19T09:21:53;6.43;;;6.13;;
8102;SDS011;4094;49.948;11.574;2023-11-19T09:24:22;7.37;;;6.77;;
8102;SDS011;4094;49.948;11.574;2023-11-19T09:26:52;7.70;;;7.20;;
8102;SDS011;4094;49.948;11.574;2023-11-19T09:29:22;7.43;;;7.03;;
8102;SDS011;4094;49.948;11.574;2023-11-19T09:31:51;7.30;;;6.90;;
8102;SDS011;4094;49.948;11.574;2023-11-19T09:34:22;7.40;;;7.00;;
8102;SDS011;4094;49.948;11.574;2023-11-19T09:36:51;6.73;;;6.43;;
8102;SDS011;4094;49.948;11.574;2023-11-19T09:39:20;6.83;;;6.40;;
8102;SDS011;4094;49.948;11.574;2023-11-19T09:41:49;5.77;;;5.47;;
8102;SDS011;4094;49.948;11.574;2023-11-19T09:44:18;7.00;;;6.60;;
8102;SDS011;4094;49.948;11.574;2023-11-19T09:46:48;7.20;;;6.80;;
8102;SDS011;4094;49.948;11.574;2023-11-19T09:49:17;6.37;;;6.07;;
8102;SDS011;4094;49.948;11.574;2023-11-19T09:51:56;6.93;;;6.43;;
8102;SDS011;4094;49.948;11.574;2023-11-19T09:54:27;7.60;;;7.07;;
8102;SDS011;4094;49.948;11.574;2023-11-19T09:56:56;7.80;;;7.23;;
8102;SDS011;4094;49.948;11.574;2023-11-19T09:59:30;6.80;;;6.30;;
8102;SDS011;4094;49.948;11.574;2023-11-19T10:01:59;7.20;;;6.70;;
8102;SDS011;4094;49.948;11.574;2023-11-19T10:04:30;6.00;;;5.50;;
8102;SDS011;4094;49.948;11.574;2023-11-19T10:07:04;6.20;;;5.90;;
8102;SDS011;4094;49.948;11.574;2023-11-19T10:09:33;5.80;;;5.50;;
8102;SDS011;4094;49.948;11.574;2023-11-19T10:12:02;5.30;;;5.00;;
8102;SDS011;4094;49.948;11.574;2023-11-19T10:14:32;5.63;;;5.33;;
8102;SDS011;4094;49.948;11.574;2023-11-19T10:17:07;5.60;;;5.20;;
8102;SDS011;4094;49.948;11.574;2023-11-19T10:19:37;5.17;;;4.87;;
8102;SDS011;4094;49.948;11.574;2023-11-19T10:22:10;5.10;;;4.80;;
8102;SDS011;4094;49.948;11.574;2023-11-19T10:24:39;5.20;;;5.00;;
8102;SDS011;4094;49.948;11.574;2023-11-19T10:27:15;5.10;;;4.80;;
8102;SDS011;4094;49.948;11.574;2023-11-19T10:29:45;4.97;;;4.67;;
8102;SDS011;4094;49.948;11.574;2023-11-19T10:32:14;5.10;;;4.90;;
8102;SDS011;4094;49.948;11.574;2023-11-19T10:35:05;5.30;;;5.00;;
8102;SDS011;4094;49.948;11.574;2023-11-19T10:37:35;5.30;;;4.80;;
8102;SDS011;4094;49.948;11.574;2023-11-19T10:40:06;5.17;;;4.83;;
8102;SDS011;4094;49.948;11.574;2023-11-19T10:42:38;5.30;;;4.90;;
8102;SDS011;4094;49.948;11.574;2023-11-19T10:45:19;5.20;;;4.90;;
8102;SDS011;4094;49.948;11.574;2023-11-19T10:47:51;5.57;;;5.17;;
8102;SDS011;4094;49.948;11.574;2023-11-19T10:50:24;5.13;;;4.83;;
8102;SDS011;4094;49.948;11.574;2023-11-19T10:52:55;4.97;;;4.67;;
8102;SDS011;4094;49.948;11.574;2023-11-19T10:55:27;5.10;;;4.90;;
8102;SDS011;4094;49.948;11.574;2023-11-19T10:57:58;5.20;;;4.90;;
8102;SDS011;4094;49.948;11.574;2023-11-19T11:00:29;5.13;;;4.80;;
8102;SDS011;4094;49.948;11.574;2023-11-19T11:03:00;5.70;;;5.40;;
8102;SDS011;4094;49.948;11.574;2023-11-19T11:05:32;5.60;;;5.10;;
8102;SDS011;4094;49.948;11.574;2023-11-19T11:08:01;5.47;;;5.13;;
8102;SDS011;4094;49.948;11.574;2023-11-19T11:10:35;5.43;;;5.03;;
8102;SDS011;4094;49.948;11.574;2023-11-19T11:13:25;4.77;;;4.57;;
8102;SDS011;4094;49.948;11.574;2023-11-19T11:15:56;4.83;;;4.63;;
8102;SDS011;4094;49.948;11.574;2023-11-19T11:18:26;5.17;;;4.87;;
8102;SDS011;4094;49.948;11.574;2023-11-19T11:20:57;5.30;;;5.00;;
8102;SDS011;4094;49.948;11.574;2023-11-19T11:23:44;5.20;;;4.90;;
8102;SDS011;4094;49.948;11.574;2023-11-19T11:26:30;5.00;;;4.70;;
8102;SDS011;4094;49.948;11.574;2023-11-19T11:29:10;5.10;;;4.90;;
8102;SDS011;4094;49.948;11.574;2023-11-19T11:31:48;5.83;;;5.20;;
8102;SDS011;4094;49.948;11.574;2023-11-19T11:34:31;5.33;;;5.03;;
8102;SDS011;4094;49.948;11.574;2023-11-19T11:37:26;5.37;;;4.90;;
8102;SDS011;4094;49.948;11.574;2023-11-19T11:40:01;5.07;;;4.67;;
8102;SDS011;4094;49.948;11.574;2023-11-19T11:46:08;5.47;;;5.07;;
8102;SDS011;4094;49.948;11.574;2023-11-19T11:48:40;4.73;;;4.40;;
8102;SDS011;4094;49.948;11.574;2023-11-19T11:51:13;4.33;;;4.03;;
8102;SDS011;4094;49.948;11.574;2023-11-19T11:53:44;4.43;;;4.13;;
8102;SDS011;4094;49.948;11.574;2023-11-19T11:56:16;4.60;;;4.20;;
8102;SDS011;4094;49.948;11.574;2023-11-19T11:58:45;4.50;;;4.20;;
8102;SDS011;4094;49.948;11.574;2023-11-19T12:01:17;4.47;;;4.10;;
8102;SDS011;4094;49.948;11.574;2023-11-19T12:03:48;4.73;;;4.33;;
8102;SDS011;4094;49.948;11.574;2023-11-19T12:06:20;3.90;;;3.70;;
8102;SDS011;4094;49.948;11.574;2023-11-19T12:08:51;4.80;;;4.50;;
8102;SDS011;4094;49.948;11.574;2023-11-19T12:11:22;4.10;;;3.90;;
8102;SDS011;4094;49.948;11.574;2023-11-19T12:13:55;4.27;;;4.07;;
8102;SDS011;4094;49.948;11.574;2023-11-19T12:16:27;4.33;;;4.13;;
8102;SDS011;4094;49.948;11.574;2023-11-19T12:18:57;4.80;;;4.40;;
8102;SDS011;4094;49.948;11.574;2023-11-19T12:21:33;4.50;;;4.20;;
8102;SDS011;4094;49.948;11.574;2023-11-19T12:24:06;4.40;;;4.20;;
8102;SDS011;4094;49.948;11.574;2023-11-19T12:26:36;4.27;;;3.87;;
8102;SDS011;4094;49.948;11.574;2023-11-19T12:29:07;4.60;;;4.20;;
8102;SDS011;4094;49.948;11.574;2023-11-19T12:31:37;4.50;;;4.27;;
8102;SDS011;4094;49.948;11.574;2023-11-19T12:34:07;5.00;;;4.60;;
8102;SDS011;4094;49.948;11.574;2023-11-19T12:36:40;5.07;;;4.50;;
8102;SDS011;4094;49.948;11.574;2023-11-19T12:39:12;4.60;;;4.30;;
8102;SDS011;4094;49.948;11.574;2023-11-19T12:41:48;4.90;;;4.60;;
8102;SDS011;4094;49.948;11.574;2023-11-19T12:44:19;4.80;;;4.50;;
8102;SDS011;4094;49.948;11.574;2023-11-19T12:47:02;5.10;;;4.70;;
8102;SDS011;4094;49.948;11.574;2023-11-19T12:49:31;5.37;;;4.97;;
8102;SDS011;4094;49.948;11.574;2023-11-19T12:52:01;4.73;;;4.43;;
8102;SDS011;4094;49.948;11.574;2023-11-19T12:54:33;4.80;;;4.50;;
8102;SDS011;4094;49.948;11.574;2023-11-19T12:57:04;4.87;;;4.50;;
8102;SDS011;4094;49.948;11.574;2023-11-19T12:59:34;6.10;;;5.50;;
8102;SDS011;4094;49.948;11.574;2023-11-19T13:02:03;4.87;;;4.53;;
8102;SDS011;4094;49.948;11.574;2023-11-19T13:04:34;5.37;;;4.97;;
8102;SDS011;4094;49.948;11.574;2023-11-19T13:07:03;5.00;;;4.70;;
8102;SDS011;4094;49.948;11.574;2023-11-19T13:09:35;5.17;;;4.77;;
8102;SDS011;4094;49.948;11.574;2023-11-19T13:12:12;5.30;;;4.97;;
8102;SDS011;4094;49.948;11.574;2023-11-19T13:14:42;4.83;;;4.53;;
8102;SDS011;4094;49.948;11.574;2023-11-19T13:17:13;5.67;;;5.17;;
8102;SDS011;4094;49.948;11.574;2023-11-19T13:19:43;4.93;;;4.63;;
8102;SDS011;4094;49.948;11.574;2023-11-19T13:22:12;5.33;;;4.93;;
8102;SDS011;4094;49.948;11.574;2023-11-19T13:24:43;5.40;;;5.00;;
8102;SDS011;4094;49.948;11.574;2023-11-19T13:27:12;5.43;;;5.03;;
8102;SDS011;4094;49.948;11.574;2023-11-19T13:29:42;5.10;;;4.70;;
8102;SDS011;4094;49.948;11.574;2023-11-19T13:32:11;6.17;;;4.87;;
8102;SDS011;4094;49.948;11.574;2023-11-19T13:34:41;5.53;;;5.03;;
8102;SDS011;4094;49.948;11.574;2023-11-19T13:37:09;6.07;;;5.47;;
8102;SDS011;4094;49.948;11.574;2023-11-19T13:39:42;5.40;;;4.90;;
8102;SDS011;4094;49.948;11.574;2023-11-19T13:42:12;5.80;;;5.30;;
8102;SDS011;4094;49.948;11.574;2023-11-19T13:44:41;5.37;;;4.97;;
8102;SDS011;4094;49.948;11.574;2023-11-19T13:47:10;5.03;;;4.63;;
8102;SDS011;4094;49.948;11.574;2023-11-19T13:49:41;5.93;;;5.30;;
8102;SDS011;4094;49.948;11.574;2023-11-19T13:52:10;5.20;;;4.80;;
8102;SDS011;4094;49.948;11.574;2023-11-19T13:54:40;5.40;;;5.00;;
8102;SDS011;4094;49.948;11.574;2023-11-19T13:57:11;5.50;;;5.00;;
8102;SDS011;4094;49.948;11.574;2023-11-19T13:59:40;5.50;;;5.00;;
8102;SDS011;4094;49.948;11.574;2023-11-19T14:02:09;16.47;;;5.37;;
8102;SDS011;4094;49.948;11.574;2023-11-19T14:04:38;6.07;;;4.83;;
8102;SDS011;4094;49.948;11.574;2023-11-19T14:07:09;5.77;;;5.30;;
8102;SDS011;4094;49.948;11.574;2023-11-19T14:09:38;5.40;;;5.00;;
8102;SDS011;4094;49.948;11.574;2023-11-19T14:12:10;5.90;;;5.47;;
8102;SDS011;4094;49.948;11.574;2023-11-19T14:14:40;5.83;;;5.20;;
8102;SDS011;4094;49.948;11.574;2023-11-19T14:17:09;6.40;;;5.73;;
8102;SDS011;4094;49.948;11.574;2023-11-19T14:19:41;5.73;;;5.23;;
8102;SDS011;4094;49.948;11.574;2023-11-19T14:22:11;6.57;;;5.40;;
8102;SDS011;4094;49.948;11.574;2023-11-19T14:24:41;6.03;;;5.47;;
8102;SDS011;4094;49.948;11.574;2023-11-19T14:27:11;5.87;;;5.37;;
8102;SDS011;4094;49.948;11.574;2023-11-19T14:29:41;5.47;;;5.03;;
8102;SDS011;4094;49.948;11.574;2023-11-19T14:32:10;6.20;;;5.00;;
8102;SDS011;4094;49.948;11.574;2023-11-19T14:34:40;5.90;;;5.40;;
8102;SDS011;4094;49.948;11.574;2023-11-19T14:37:09;6.23;;;5.67;;
8102;SDS011;4094;49.948;11.574;2023-11-19T14:39:39;5.33;;;4.90;;
8102;SDS011;4094;49.948;11.574;2023-11-19T14:42:08;5.30;;;4.90;;
8102;SDS011;4094;49.948;11.574;2023-11-19T14:44:38;5.20;;;4.73;;
8102;SDS011;4094;49.948;11.574;2023-11-19T14:47:08;5.97;;;5.37;;
8102;SDS011;4094;49.948;11.574;2023-11-19T14:49:37;5.80;;;5.30;;
8102;SDS011;4094;49.948;11.574;2023-11-19T14:52:06;5.73;;;5.33;;
8102;SDS011;4094;49.948;11.574;2023-11-19T14:54:39;5.70;;;5.20;;
8102;SDS011;4094;49.948;11.574;2023-11-19T14:57:08;9.30;;;5.30;;
8102;SDS011;4094;49.948;11.574;2023-11-19T14:59:37;6.53;;;5.93;;
8102;SDS011;4094;49.948;11.574;2023-11-19T15:02:07;6.17;;;5.63;;
8102;SDS011;4094;49.948;11.574;2023-11-19T15:04:36;5.53;;;5.13;;
8102;SDS011;4094;49.948;11.574;2023-11-19T15:07:06;6.33;;;5.73;;
8102;SDS011;4094;49.948;11.574;2023-11-19T15:09:35;6.10;;;5.60;;
8102;SDS011;4094;49.948;11.574;2023-11-19T15:12:05;5.90;;;5.37;;
8102;SDS011;4094;49.948;11.574;2023-11-19T15:14:34;6.13;;;5.63;;
8102;SDS011;4094;49.948;11.574;2023-11-19T15:17:05;6.40;;;5.90;;
8102;SDS011;4094;49.948;11.574;2023-11-19T15:19:35;6.57;;;5.97;;
8102;SDS011;4094;49.948;11.574;2023-11-19T15:22:04;6.33;;;5.73;;
8102;SDS011;4094;49.948;11.574;2023-11-19T15:24:34;6.23;;;5.73;;